sensor_id;sensor_type;location;lat;lon;timestamp;temperature;humidity
19544;DHT22;9917;51.256;7.152;2023-07-02T00:00:20;17.70;99.90
19544;DHT22;9917;51.256;7.152;2023-07-02T00:02:47;17.80;99.90
19544;DHT22;9917;51.256;7.152;2023-07-02T00:05:13;17.80;99.90
19544;DHT22;9917;51.256;7.152;2023-07-02T00:07:39;17.50;99.90
19544;DHT22;9917;51.256;7.152;2023-07-02T00:10:05;17.80;99.90
19544;DHT22;9917;51.256;7.152;2023-07-02T00:12:31;17.80;99.90
19544;DHT22;9917;51.256;7.152;2023-07-02T00:14:58;17.60;99.90
19544;DHT22;9917;51.256;7.152;2023-07-02T00:17:24;17.70;99.90
19544;DHT22;9917;51.256;7.152;2023-07-02T00:19:51;17.90;99.90
19544;DHT22;9917;51.256;7.152;2023-07-02T00:22:17;18.10;99.90
19544;DHT22;9917;51.256;7.152;2023-07-02T00:24:43;17.70;99.90
19544;DHT22;9917;51.256;7.152;2023-07-02T00:27:09;17.80;99.90
19544;DHT22;9917;51.256;7.152;2023-07-02T00:36:54;17.60;99.90
19544;DHT22;9917;51.256;7.152;2023-07-02T00:39:19;17.50;99.90
19544;DHT22;9917;51.256;7.152;2023-07-02T00:41:45;17.40;99.90
19544;DHT22;9917;51.256;7.152;2023-07-02T00:46:37;17.40;99.90
19544;DHT22;9917;51.256;7.152;2023-07-02T00:49:04;17.40;99.90
19544;DHT22;9917;51.256;7.152;2023-07-02T00:51:30;17.70;99.90
19544;DHT22;9917;51.256;7.152;2023-07-02T00:53:58;18.50;99.90
19544;DHT22;9917;51.256;7.152;2023-07-02T00:56:25;17.30;99.90
19544;DHT22;9917;51.256;7.152;2023-07-02T00:58:52;17.30;99.90
19544;DHT22;9917;51.256;7.152;2023-07-02T01:01:20;17.60;99.90
19544;DHT22;9917;51.256;7.152;2023-07-02T01:03:53;17.20;99.90
19544;DHT22;9917;51.256;7.152;2023-07-02T01:06:19;17.20;99.90
19544;DHT22;9917;51.256;7.152;2023-07-02T01:11:14;17.30;99.90
19544;DHT22;9917;51.256;7.152;2023-07-02T01:13:39;17.50;99.90
19544;DHT22;9917;51.256;7.152;2023-07-02T01:16:06;17.30;99.90
19544;DHT22;9917;51.256;7.152;2023-07-02T01:18:32;17.60;99.90
19544;DHT22;9917;51.256;7.152;2023-07-02T01:20:59;17.40;99.90
19544;DHT22;9917;51.256;7.152;2023-07-02T01:23:25;17.20;99.90
19544;DHT22;9917;51.256;7.152;2023-07-02T01:25:51;17.20;99.90
19544;DHT22;9917;51.256;7.152;2023-07-02T01:28:17;17.60;99.90
19544;DHT22;9917;51.256;7.152;2023-07-02T01:33:09;17.10;99.90
19544;DHT22;9917;51.256;7.152;2023-07-02T01:35:35;17.40;99.90
19544;DHT22;9917;51.256;7.152;2023-07-02T01:38:02;17.10;99.90
19544;DHT22;9917;51.256;7.152;2023-07-02T01:40:28;17.20;99.90
19544;DHT22;9917;51.256;7.152;2023-07-02T01:42:53;16.90;99.90
19544;DHT22;9917;51.256;7.152;2023-07-02T01:45:19;17.00;99.90
19544;DHT22;9917;51.256;7.152;2023-07-02T01:47:45;16.90;99.90
19544;DHT22;9917;51.256;7.152;2023-07-02T01:52:37;17.00;99.90
19544;DHT22;9917;51.256;7.152;2023-07-02T01:55:04;17.00;99.90
19544;DHT22;9917;51.256;7.152;2023-07-02T01:59:56;16.90;99.90
19544;DHT22;9917;51.256;7.152;2023-07-02T02:07:14;16.70;99.90
19544;DHT22;9917;51.256;7.152;2023-07-02T02:09:40;16.50;99.90
19544;DHT22;9917;51.256;7.152;2023-07-02T02:12:09;16.90;99.90
19544;DHT22;9917;51.256;7.152;2023-07-02T02:14:35;16.60;99.90
19544;DHT22;9917;51.256;7.152;2023-07-02T02:19:27;16.40;99.90
19544;DHT22;9917;51.256;7.152;2023-07-02T02:21:53;16.40;99.90
19544;DHT22;9917;51.256;7.152;2023-07-02T02:24:18;16.30;99.90
19544;DHT22;9917;51.256;7.152;2023-07-02T02:26:44;16.30;99.90
19544;DHT22;9917;51.256;7.152;2023-07-02T02:29:11;16.30;99.90
19544;DHT22;9917;51.256;7.152;2023-07-02T02:34:03;16.30;99.90
19544;DHT22;9917;51.256;7.152;2023-07-02T02:36:29;16.40;99.90
19544;DHT22;9917;51.256;7.152;2023-07-02T02:38:55;16.50;99.90
19544;DHT22;9917;51.256;7.152;2023-07-02T02:41:20;16.60;99.90
19544;DHT22;9917;51.256;7.152;2023-07-02T02:43:46;16.50;99.90
19544;DHT22;9917;51.256;7.152;2023-07-02T02:46:19;16.30;99.90
19544;DHT22;9917;51.256;7.152;2023-07-02T02:51:11;16.50;99.90
19544;DHT22;9917;51.256;7.152;2023-07-02T02:53:37;16.60;99.90
19544;DHT22;9917;51.256;7.152;2023-07-02T02:58:28;16.60;99.90
19544;DHT22;9917;51.256;7.152;2023-07-02T03:00:54;16.60;99.90
19544;DHT22;9917;51.256;7.152;2023-07-02T03:03:21;16.60;99.90
19544;DHT22;9917;51.256;7.152;2023-07-02T03:05:47;16.60;99.90
19544;DHT22;9917;51.256;7.152;2023-07-02T03:08:13;16.80;99.90
19544;DHT22;9917;51.256;7.152;2023-07-02T03:13:04;16.60;99.90
19544;DHT22;9917;51.256;7.152;2023-07-02T03:17:56;16.40;99.90
19544;DHT22;9917;51.256;7.152;2023-07-02T03:20:24;16.70;99.90
19544;DHT22;9917;51.256;7.152;2023-07-02T03:22:50;16.80;99.90
19544;DHT22;9917;51.256;7.152;2023-07-02T03:25:15;16.80;99.90
19544;DHT22;9917;51.256;7.152;2023-07-02T03:27:41;16.80;99.90
19544;DHT22;9917;51.256;7.152;2023-07-02T03:30:08;16.80;99.90
19544;DHT22;9917;51.256;7.152;2023-07-02T03:32:33;16.80;99.90
19544;DHT22;9917;51.256;7.152;2023-07-02T03:34:59;16.60;99.90
19544;DHT22;9917;51.256;7.152;2023-07-02T03:37:26;16.40;99.90
19544;DHT22;9917;51.256;7.152;2023-07-02T03:39:52;16.20;99.90
19544;DHT22;9917;51.256;7.152;2023-07-02T03:42:17;16.70;99.90
19544;DHT22;9917;51.256;7.152;2023-07-02T03:44:43;16.90;99.90
19544;DHT22;9917;51.256;7.152;2023-07-02T03:47:09;16.60;99.90
19544;DHT22;9917;51.256;7.152;2023-07-02T03:49:34;16.90;99.90
19544;DHT22;9917;51.256;7.152;2023-07-02T03:52:00;16.90;99.90
19544;DHT22;9917;51.256;7.152;2023-07-02T03:54:27;16.90;99.90
19544;DHT22;9917;51.256;7.152;2023-07-02T03:56:53;16.80;99.90
19544;DHT22;9917;51.256;7.152;2023-07-02T03:59:18;16.80;99.90
19544;DHT22;9917;51.256;7.152;2023-07-02T04:04:10;17.00;99.90
19544;DHT22;9917;51.256;7.152;2023-07-02T04:06:36;16.90;99.90
19544;DHT22;9917;51.256;7.152;2023-07-02T04:09:02;16.90;99.90
19544;DHT22;9917;51.256;7.152;2023-07-02T04:11:29;17.00;99.90
19544;DHT22;9917;51.256;7.152;2023-07-02T04:13:54;16.80;99.90
19544;DHT22;9917;51.256;7.152;2023-07-02T04:18:46;16.90;99.90
19544;DHT22;9917;51.256;7.152;2023-07-02T04:26:04;16.60;99.90
19544;DHT22;9917;51.256;7.152;2023-07-02T04:28:31;16.70;99.90
19544;DHT22;9917;51.256;7.152;2023-07-02T04:38:15;16.80;99.90
19544;DHT22;9917;51.256;7.152;2023-07-02T04:40:41;16.90;99.90
19544;DHT22;9917;51.256;7.152;2023-07-02T04:45:34;16.80;99.90
19544;DHT22;9917;51.256;7.152;2023-07-02T04:50:26;16.90;99.90
19544;DHT22;9917;51.256;7.152;2023-07-02T04:52:52;16.80;99.90
19544;DHT22;9917;51.256;7.152;2023-07-02T04:55:18;16.90;99.90
19544;DHT22;9917;51.256;7.152;2023-07-02T05:00:11;17.00;99.90
19544;DHT22;9917;51.256;7.152;2023-07-02T05:02:38;16.90;99.90
19544;DHT22;9917;51.256;7.152;2023-07-02T05:05:04;17.50;99.90
19544;DHT22;9917;51.256;7.152;2023-07-02T05:07:30;17.00;99.90
19544;DHT22;9917;51.256;7.152;2023-07-02T05:09:56;16.90;99.90
19544;DHT22;9917;51.256;7.152;2023-07-02T05:12:23;17.00;99.90
19544;DHT22;9917;51.256;7.152;2023-07-02T05:14:49;17.10;99.90
19544;DHT22;9917;51.256;7.152;2023-07-02T05:17:14;17.20;99.90
19544;DHT22;9917;51.256;7.152;2023-07-02T05:19:42;17.30;99.90
19544;DHT22;9917;51.256;7.152;2023-07-02T05:22:08;17.40;99.90
19544;DHT22;9917;51.256;7.152;2023-07-02T05:24:33;17.40;99.90
19544;DHT22;9917;51.256;7.152;2023-07-02T05:26:59;17.50;99.90
19544;DHT22;9917;51.256;7.152;2023-07-02T05:31:51;17.50;99.90
19544;DHT22;9917;51.256;7.152;2023-07-02T05:34:17;17.20;99.90
19544;DHT22;9917;51.256;7.152;2023-07-02T05:36:44;17.40;99.90
19544;DHT22;9917;51.256;7.152;2023-07-02T05:39:10;17.40;99.90
19544;DHT22;9917;51.256;7.152;2023-07-02T05:41:35;17.50;99.90
19544;DHT22;9917;51.256;7.152;2023-07-02T05:46:27;17.80;99.90
19544;DHT22;9917;51.256;7.152;2023-07-02T05:48:53;17.90;99.90
19544;DHT22;9917;51.256;7.152;2023-07-02T05:51:20;18.20;99.90
19544;DHT22;9917;51.256;7.152;2023-07-02T05:53:47;18.30;99.90
19544;DHT22;9917;51.256;7.152;2023-07-02T05:56:13;18.50;99.90
19544;DHT22;9917;51.256;7.152;2023-07-02T05:58:39;18.20;99.90
19544;DHT22;9917;51.256;7.152;2023-07-02T06:01:04;18.70;99.90
19544;DHT22;9917;51.256;7.152;2023-07-02T06:05:56;18.30;99.90
19544;DHT22;9917;51.256;7.152;2023-07-02T06:08:22;17.90;99.90
19544;DHT22;9917;51.256;7.152;2023-07-02T06:10:49;18.10;99.90
19544;DHT22;9917;51.256;7.152;2023-07-02T06:13:15;17.80;99.90
19544;DHT22;9917;51.256;7.152;2023-07-02T06:18:07;18.00;99.90
19544;DHT22;9917;51.256;7.152;2023-07-02T06:20:33;18.30;99.90
19544;DHT22;9917;51.256;7.152;2023-07-02T06:22:59;18.00;99.90
19544;DHT22;9917;51.256;7.152;2023-07-02T06:25:25;18.50;99.90
19544;DHT22;9917;51.256;7.152;2023-07-02T06:27:52;18.50;99.90
19544;DHT22;9917;51.256;7.152;2023-07-02T06:30:18;18.50;99.90
19544;DHT22;9917;51.256;7.152;2023-07-02T06:32:44;18.20;99.90
19544;DHT22;9917;51.256;7.152;2023-07-02T06:37:36;18.30;99.90
19544;DHT22;9917;51.256;7.152;2023-07-02T06:40:01;18.40;99.90
19544;DHT22;9917;51.256;7.152;2023-07-02T06:42:27;18.50;99.90
19544;DHT22;9917;51.256;7.152;2023-07-02T06:44:54;18.70;99.90
19544;DHT22;9917;51.256;7.152;2023-07-02T06:47:20;19.00;99.90
19544;DHT22;9917;51.256;7.152;2023-07-02T06:49:46;19.00;99.90
19544;DHT22;9917;51.256;7.152;2023-07-02T06:52:11;19.40;99.90
19544;DHT22;9917;51.256;7.152;2023-07-02T06:57:04;19.30;99.90
19544;DHT22;9917;51.256;7.152;2023-07-02T07:01:57;19.40;99.90
19544;DHT22;9917;51.256;7.152;2023-07-02T07:04:22;19.60;99.90
19544;DHT22;9917;51.256;7.152;2023-07-02T07:06:48;20.20;99.90
19544;DHT22;9917;51.256;7.152;2023-07-02T07:09:17;20.20;99.90
19544;DHT22;9917;51.256;7.152;2023-07-02T07:14:08;20.40;99.90
19544;DHT22;9917;51.256;7.152;2023-07-02T07:16:34;20.10;99.90
19544;DHT22;9917;51.256;7.152;2023-07-02T07:19:01;20.30;99.90
19544;DHT22;9917;51.256;7.152;2023-07-02T07:21:27;20.50;99.90
19544;DHT22;9917;51.256;7.152;2023-07-02T07:23:52;20.80;99.90
19544;DHT22;9917;51.256;7.152;2023-07-02T07:26:18;20.90;99.90
19544;DHT22;9917;51.256;7.152;2023-07-02T07:28:44;20.60;99.90
19544;DHT22;9917;51.256;7.152;2023-07-02T07:31:09;20.80;99.90
19544;DHT22;9917;51.256;7.152;2023-07-02T07:33:35;21.10;99.90
19544;DHT22;9917;51.256;7.152;2023-07-02T07:36:03;21.00;99.90
19544;DHT22;9917;51.256;7.152;2023-07-02T07:38:28;21.10;99.90
19544;DHT22;9917;51.256;7.152;2023-07-02T07:40:54;21.10;99.90
19544;DHT22;9917;51.256;7.152;2023-07-02T07:43:20;21.20;99.90
19544;DHT22;9917;51.256;7.152;2023-07-02T07:45:45;21.40;99.90
19544;DHT22;9917;51.256;7.152;2023-07-02T07:50:37;21.40;99.20
19544;DHT22;9917;51.256;7.152;2023-07-02T07:53:04;21.30;99.10
19544;DHT22;9917;51.256;7.152;2023-07-02T07:55:30;21.20;98.50
19544;DHT22;9917;51.256;7.152;2023-07-02T08:00:22;21.00;98.30
19544;DHT22;9917;51.256;7.152;2023-07-02T08:02:47;21.00;99.00
19544;DHT22;9917;51.256;7.152;2023-07-02T08:05:13;20.80;97.60
19544;DHT22;9917;51.256;7.152;2023-07-02T08:10:07;20.70;98.00
19544;DHT22;9917;51.256;7.152;2023-07-02T08:12:33;20.80;95.50
19544;DHT22;9917;51.256;7.152;2023-07-02T08:17:25;20.90;96.40
19544;DHT22;9917;51.256;7.152;2023-07-02T08:19:50;20.90;96.50
19544;DHT22;9917;51.256;7.152;2023-07-02T08:22:16;21.10;94.60
19544;DHT22;9917;51.256;7.152;2023-07-02T08:24:42;20.80;93.20
19544;DHT22;9917;51.256;7.152;2023-07-02T08:27:09;20.80;92.90
19544;DHT22;9917;51.256;7.152;2023-07-02T08:29:35;20.70;93.20
19544;DHT22;9917;51.256;7.152;2023-07-02T08:32:01;20.60;93.20
19544;DHT22;9917;51.256;7.152;2023-07-02T08:34:27;20.50;94.00
19544;DHT22;9917;51.256;7.152;2023-07-02T08:36:52;20.30;94.20
19544;DHT22;9917;51.256;7.152;2023-07-02T08:39:18;20.10;95.20
19544;DHT22;9917;51.256;7.152;2023-07-02T08:41:44;19.80;96.00
19544;DHT22;9917;51.256;7.152;2023-07-02T08:44:12;19.60;96.80
19544;DHT22;9917;51.256;7.152;2023-07-02T08:46:39;19.00;97.40
19544;DHT22;9917;51.256;7.152;2023-07-02T08:49:06;18.70;98.00
19544;DHT22;9917;51.256;7.152;2023-07-02T08:51:31;19.00;99.00
19544;DHT22;9917;51.256;7.152;2023-07-02T08:53:57;19.10;99.30
19544;DHT22;9917;51.256;7.152;2023-07-02T08:56:23;19.30;99.10
19544;DHT22;9917;51.256;7.152;2023-07-02T08:58:49;19.80;99.00
19544;DHT22;9917;51.256;7.152;2023-07-02T09:01:16;19.90;98.90
19544;DHT22;9917;51.256;7.152;2023-07-02T09:03:41;20.20;98.40
19544;DHT22;9917;51.256;7.152;2023-07-02T09:06:08;20.10;98.20
19544;DHT22;9917;51.256;7.152;2023-07-02T09:08:34;19.80;98.30
19544;DHT22;9917;51.256;7.152;2023-07-02T09:11:07;19.80;98.50
19544;DHT22;9917;51.256;7.152;2023-07-02T09:13:42;19.90;98.60
19544;DHT22;9917;51.256;7.152;2023-07-02T09:16:08;20.20;98.90
19544;DHT22;9917;51.256;7.152;2023-07-02T09:18:35;19.60;99.10
19544;DHT22;9917;51.256;7.152;2023-07-02T09:21:01;19.60;99.20
19544;DHT22;9917;51.256;7.152;2023-07-02T09:23:34;19.30;99.30
19544;DHT22;9917;51.256;7.152;2023-07-02T09:26:00;19.20;99.60
19544;DHT22;9917;51.256;7.152;2023-07-02T09:28:25;19.30;99.80
19544;DHT22;9917;51.256;7.152;2023-07-02T09:30:52;19.40;99.90
19544;DHT22;9917;51.256;7.152;2023-07-02T09:33:18;19.10;99.50
19544;DHT22;9917;51.256;7.152;2023-07-02T09:35:45;18.80;99.70
19544;DHT22;9917;51.256;7.152;2023-07-02T09:38:12;19.40;99.90
19544;DHT22;9917;51.256;7.152;2023-07-02T09:40:44;19.30;99.90
19544;DHT22;9917;51.256;7.152;2023-07-02T09:43:10;19.40;99.90
19544;DHT22;9917;51.256;7.152;2023-07-02T09:45:36;20.20;99.90
19544;DHT22;9917;51.256;7.152;2023-07-02T09:48:03;23.00;95.40
19544;DHT22;9917;51.256;7.152;2023-07-02T09:50:30;23.00;93.40
19544;DHT22;9917;51.256;7.152;2023-07-02T09:52:57;22.40;93.30
19544;DHT22;9917;51.256;7.152;2023-07-02T09:55:23;22.70;93.40
19544;DHT22;9917;51.256;7.152;2023-07-02T09:57:49;21.50;94.40
19544;DHT22;9917;51.256;7.152;2023-07-02T10:00:15;20.80;95.80
19544;DHT22;9917;51.256;7.152;2023-07-02T10:02:41;20.30;97.10
19544;DHT22;9917;51.256;7.152;2023-07-02T10:05:07;20.00;97.40
19544;DHT22;9917;51.256;7.152;2023-07-02T10:07:33;20.00;97.60
19544;DHT22;9917;51.256;7.152;2023-07-02T10:10:01;20.20;97.80
19544;DHT22;9917;51.256;7.152;2023-07-02T10:12:28;20.60;97.80
19544;DHT22;9917;51.256;7.152;2023-07-02T10:14:55;23.00;95.40
19544;DHT22;9917;51.256;7.152;2023-07-02T10:17:25;23.00;95.40
19544;DHT22;9917;51.256;7.152;2023-07-02T10:19:52;24.30;91.80
19544;DHT22;9917;51.256;7.152;2023-07-02T10:22:19;24.30;90.50
19544;DHT22;9917;51.256;7.152;2023-07-02T10:24:51;24.00;90.80
19544;DHT22;9917;51.256;7.152;2023-07-02T10:27:18;22.70;91.30
19544;DHT22;9917;51.256;7.152;2023-07-02T10:29:49;22.00;92.70
19544;DHT22;9917;51.256;7.152;2023-07-02T10:32:26;21.10;93.70
19544;DHT22;9917;51.256;7.152;2023-07-02T10:34:52;20.90;94.90
19544;DHT22;9917;51.256;7.152;2023-07-02T10:37:18;20.70;95.60
19544;DHT22;9917;51.256;7.152;2023-07-02T10:39:44;20.30;96.00
19544;DHT22;9917;51.256;7.152;2023-07-02T10:42:10;20.40;96.50
19544;DHT22;9917;51.256;7.152;2023-07-02T10:44:47;20.30;97.10
19544;DHT22;9917;51.256;7.152;2023-07-02T10:47:13;20.10;97.20
19544;DHT22;9917;51.256;7.152;2023-07-02T10:49:39;19.90;97.50
19544;DHT22;9917;51.256;7.152;2023-07-02T10:52:06;20.00;97.70
19544;DHT22;9917;51.256;7.152;2023-07-02T10:54:41;19.70;97.50
19544;DHT22;9917;51.256;7.152;2023-07-02T10:57:07;19.90;97.80
19544;DHT22;9917;51.256;7.152;2023-07-02T11:02:00;21.40;96.30
19544;DHT22;9917;51.256;7.152;2023-07-02T11:04:26;21.90;92.20
19544;DHT22;9917;51.256;7.152;2023-07-02T11:06:52;21.90;92.20
19544;DHT22;9917;51.256;7.152;2023-07-02T11:09:18;21.80;91.80
19544;DHT22;9917;51.256;7.152;2023-07-02T11:11:50;22.20;91.60
19544;DHT22;9917;51.256;7.152;2023-07-02T11:14:26;24.30;86.00
19544;DHT22;9917;51.256;7.152;2023-07-02T11:16:54;24.50;85.90
19544;DHT22;9917;51.256;7.152;2023-07-02T11:19:21;24.90;72.70
19544;DHT22;9917;51.256;7.152;2023-07-02T11:21:51;25.00;68.20
19544;DHT22;9917;51.256;7.152;2023-07-02T11:24:27;24.80;66.00
19544;DHT22;9917;51.256;7.152;2023-07-02T11:26:52;23.80;66.70
19544;DHT22;9917;51.256;7.152;2023-07-02T11:29:18;22.90;67.70
19544;DHT22;9917;51.256;7.152;2023-07-02T11:31:44;22.90;68.20
19544;DHT22;9917;51.256;7.152;2023-07-02T11:34:13;22.90;67.90
19544;DHT22;9917;51.256;7.152;2023-07-02T11:36:40;24.00;67.70
19544;DHT22;9917;51.256;7.152;2023-07-02T11:39:06;24.80;65.30
19544;DHT22;9917;51.256;7.152;2023-07-02T11:41:36;25.60;62.90
19544;DHT22;9917;51.256;7.152;2023-07-02T11:44:02;27.80;59.50
19544;DHT22;9917;51.256;7.152;2023-07-02T11:46:28;28.30;54.70
19544;DHT22;9917;51.256;7.152;2023-07-02T11:48:53;27.60;54.20
19544;DHT22;9917;51.256;7.152;2023-07-02T11:51:19;27.40;54.40
19544;DHT22;9917;51.256;7.152;2023-07-02T11:53:46;26.60;54.50
19544;DHT22;9917;51.256;7.152;2023-07-02T11:56:12;25.70;55.90
19544;DHT22;9917;51.256;7.152;2023-07-02T11:58:38;25.00;57.70
19544;DHT22;9917;51.256;7.152;2023-07-02T12:01:03;25.00;59.00
19544;DHT22;9917;51.256;7.152;2023-07-02T12:05:55;26.10;57.10
19544;DHT22;9917;51.256;7.152;2023-07-02T12:08:21;26.80;54.70
19544;DHT22;9917;51.256;7.152;2023-07-02T12:10:48;26.60;54.90
19544;DHT22;9917;51.256;7.152;2023-07-02T12:13:14;26.40;55.10
19544;DHT22;9917;51.256;7.152;2023-07-02T12:15:40;26.80;53.40
19544;DHT22;9917;51.256;7.152;2023-07-02T12:18:06;26.50;53.30
19544;DHT22;9917;51.256;7.152;2023-07-02T12:20:32;26.70;52.50
19544;DHT22;9917;51.256;7.152;2023-07-02T12:22:57;26.70;52.90
19544;DHT22;9917;51.256;7.152;2023-07-02T12:25:23;27.90;51.70
19544;DHT22;9917;51.256;7.152;2023-07-02T12:27:50;29.10;49.90
19544;DHT22;9917;51.256;7.152;2023-07-02T12:30:16;30.70;48.30
19544;DHT22;9917;51.256;7.152;2023-07-02T12:32:42;31.30;45.50
19544;DHT22;9917;51.256;7.152;2023-07-02T12:35:08;29.90;46.30
19544;DHT22;9917;51.256;7.152;2023-07-02T12:37:33;28.50;48.50
19544;DHT22;9917;51.256;7.152;2023-07-02T12:39:59;27.60;50.00
19544;DHT22;9917;51.256;7.152;2023-07-02T12:42:25;26.30;50.20
19544;DHT22;9917;51.256;7.152;2023-07-02T12:44:52;25.70;52.20
19544;DHT22;9917;51.256;7.152;2023-07-02T12:47:18;25.10;53.40
19544;DHT22;9917;51.256;7.152;2023-07-02T12:49:44;28.20;50.50
19544;DHT22;9917;51.256;7.152;2023-07-02T12:52:09;28.50;50.80
19544;DHT22;9917;51.256;7.152;2023-07-02T12:54:35;30.80;48.50
19544;DHT22;9917;51.256;7.152;2023-07-02T12:57:01;33.00;44.80
19544;DHT22;9917;51.256;7.152;2023-07-02T12:59:26;34.50;42.70
19544;DHT22;9917;51.256;7.152;2023-07-02T13:01:53;35.10;41.80
19544;DHT22;9917;51.256;7.152;2023-07-02T13:04:19;35.80;38.90
19544;DHT22;9917;51.256;7.152;2023-07-02T13:06:45;35.20;39.20
19544;DHT22;9917;51.256;7.152;2023-07-02T13:09:10;35.60;39.20
19544;DHT22;9917;51.256;7.152;2023-07-02T13:11:36;35.30;38.10
19544;DHT22;9917;51.256;7.152;2023-07-02T13:14:02;34.40;37.70
19544;DHT22;9917;51.256;7.152;2023-07-02T13:16:28;31.20;40.10
19544;DHT22;9917;51.256;7.152;2023-07-02T13:18:56;31.00;40.60
19544;DHT22;9917;51.256;7.152;2023-07-02T13:21:22;29.90;42.20
19544;DHT22;9917;51.256;7.152;2023-07-02T13:23:48;28.90;43.50
19544;DHT22;9917;51.256;7.152;2023-07-02T13:26:13;28.10;44.60
19544;DHT22;9917;51.256;7.152;2023-07-02T13:28:39;28.00;45.40
19544;DHT22;9917;51.256;7.152;2023-07-02T13:31:05;29.00;44.40
19544;DHT22;9917;51.256;7.152;2023-07-02T13:33:31;29.20;44.80
19544;DHT22;9917;51.256;7.152;2023-07-02T13:35:58;30.50;44.50
19544;DHT22;9917;51.256;7.152;2023-07-02T13:38:23;32.10;41.40
19544;DHT22;9917;51.256;7.152;2023-07-02T13:40:49;32.70;40.90
19544;DHT22;9917;51.256;7.152;2023-07-02T13:43:15;33.60;39.90
19544;DHT22;9917;51.256;7.152;2023-07-02T13:48:06;33.70;38.60
19544;DHT22;9917;51.256;7.152;2023-07-02T13:50:32;33.50;38.10
19544;DHT22;9917;51.256;7.152;2023-07-02T13:52:59;31.60;40.00
19544;DHT22;9917;51.256;7.152;2023-07-02T13:55:25;29.80;41.90
19544;DHT22;9917;51.256;7.152;2023-07-02T14:00:18;29.20;43.50
19544;DHT22;9917;51.256;7.152;2023-07-02T14:02:44;29.70;43.90
19544;DHT22;9917;51.256;7.152;2023-07-02T14:05:11;30.30;44.10
19544;DHT22;9917;51.256;7.152;2023-07-02T14:07:37;31.20;42.10
19544;DHT22;9917;51.256;7.152;2023-07-02T14:10:03;30.40;41.50
19544;DHT22;9917;51.256;7.152;2023-07-02T14:12:28;28.90;44.20
19544;DHT22;9917;51.256;7.152;2023-07-02T14:14:54;28.80;45.10
19544;DHT22;9917;51.256;7.152;2023-07-02T14:17:21;28.90;44.70
19544;DHT22;9917;51.256;7.152;2023-07-02T14:19:47;28.60;44.90
19544;DHT22;9917;51.256;7.152;2023-07-02T14:22:13;27.80;46.50
19544;DHT22;9917;51.256;7.152;2023-07-02T14:24:38;27.40;46.80
19544;DHT22;9917;51.256;7.152;2023-07-02T14:27:05;27.00;47.70
19544;DHT22;9917;51.256;7.152;2023-07-02T14:29:30;28.20;46.70
19544;DHT22;9917;51.256;7.152;2023-07-02T14:31:56;28.40;47.30
19544;DHT22;9917;51.256;7.152;2023-07-02T14:34:23;29.40;45.90
19544;DHT22;9917;51.256;7.152;2023-07-02T14:36:49;29.80;44.90
19544;DHT22;9917;51.256;7.152;2023-07-02T14:39:15;29.30;45.40
19544;DHT22;9917;51.256;7.152;2023-07-02T14:41:40;29.20;46.00
19544;DHT22;9917;51.256;7.152;2023-07-02T14:44:06;28.90;45.60
19544;DHT22;9917;51.256;7.152;2023-07-02T14:46:32;27.20;47.50
19544;DHT22;9917;51.256;7.152;2023-07-02T14:48:58;27.20;48.00
19544;DHT22;9917;51.256;7.152;2023-07-02T14:51:25;25.80;49.60
19544;DHT22;9917;51.256;7.152;2023-07-02T14:53:51;25.90;50.30
19544;DHT22;9917;51.256;7.152;2023-07-02T14:56:17;25.90;50.70
19544;DHT22;9917;51.256;7.152;2023-07-02T14:58:42;25.90;51.40
19544;DHT22;9917;51.256;7.152;2023-07-02T15:01:08;25.90;51.20
19544;DHT22;9917;51.256;7.152;2023-07-02T15:03:34;25.80;51.40
19544;DHT22;9917;51.256;7.152;2023-07-02T15:06:07;25.70;51.10
19544;DHT22;9917;51.256;7.152;2023-07-02T15:08:35;25.70;51.50
19544;DHT22;9917;51.256;7.152;2023-07-02T15:11:01;25.40;52.10
19544;DHT22;9917;51.256;7.152;2023-07-02T15:13:27;25.30;52.70
19544;DHT22;9917;51.256;7.152;2023-07-02T15:15:52;25.20;52.70
19544;DHT22;9917;51.256;7.152;2023-07-02T15:18:18;25.30;53.00
19544;DHT22;9917;51.256;7.152;2023-07-02T15:20:44;25.30;54.00
19544;DHT22;9917;51.256;7.152;2023-07-02T15:23:10;25.50;53.40
19544;DHT22;9917;51.256;7.152;2023-07-02T15:25:37;25.60;52.80
19544;DHT22;9917;51.256;7.152;2023-07-02T15:28:03;25.70;52.30
19544;DHT22;9917;51.256;7.152;2023-07-02T15:30:29;25.50;52.10
19544;DHT22;9917;51.256;7.152;2023-07-02T15:32:55;25.40;52.10
19544;DHT22;9917;51.256;7.152;2023-07-02T15:35:21;25.20;51.60
19544;DHT22;9917;51.256;7.152;2023-07-02T15:37:47;25.00;52.10
19544;DHT22;9917;51.256;7.152;2023-07-02T15:40:13;24.70;52.30
19544;DHT22;9917;51.256;7.152;2023-07-02T15:42:40;24.50;52.60
19544;DHT22;9917;51.256;7.152;2023-07-02T15:45:07;24.30;53.10
19544;DHT22;9917;51.256;7.152;2023-07-02T15:47:33;24.30;53.50
19544;DHT22;9917;51.256;7.152;2023-07-02T15:49:59;24.40;54.20
19544;DHT22;9917;51.256;7.152;2023-07-02T15:52:24;24.40;54.40
19544;DHT22;9917;51.256;7.152;2023-07-02T15:54:52;24.40;54.70
19544;DHT22;9917;51.256;7.152;2023-07-02T15:57:17;24.50;55.10
19544;DHT22;9917;51.256;7.152;2023-07-02T15:59:44;24.70;54.40
19544;DHT22;9917;51.256;7.152;2023-07-02T16:02:10;24.70;54.30
19544;DHT22;9917;51.256;7.152;2023-07-02T16:04:36;24.60;54.40
19544;DHT22;9917;51.256;7.152;2023-07-02T16:07:02;24.40;54.70
19544;DHT22;9917;51.256;7.152;2023-07-02T16:09:28;24.20;55.40
19544;DHT22;9917;51.256;7.152;2023-07-02T16:11:53;23.90;55.80
19544;DHT22;9917;51.256;7.152;2023-07-02T16:14:20;23.60;56.70
19544;DHT22;9917;51.256;7.152;2023-07-02T16:16:47;23.40;56.30
19544;DHT22;9917;51.256;7.152;2023-07-02T16:19:14;23.10;56.70
19544;DHT22;9917;51.256;7.152;2023-07-02T16:21:41;23.10;57.30
19544;DHT22;9917;51.256;7.152;2023-07-02T16:24:09;23.20;57.20
19544;DHT22;9917;51.256;7.152;2023-07-02T16:31:33;23.50;55.90
19544;DHT22;9917;51.256;7.152;2023-07-02T16:34:00;23.30;56.70
19544;DHT22;9917;51.256;7.152;2023-07-02T16:36:25;23.30;57.60
19544;DHT22;9917;51.256;7.152;2023-07-02T16:41:17;23.20;58.50
19544;DHT22;9917;51.256;7.152;2023-07-02T16:43:46;23.30;59.10
19544;DHT22;9917;51.256;7.152;2023-07-02T16:46:11;23.50;57.40
19544;DHT22;9917;51.256;7.152;2023-07-02T16:48:37;23.50;57.30
19544;DHT22;9917;51.256;7.152;2023-07-02T16:51:06;23.50;57.20
19544;DHT22;9917;51.256;7.152;2023-07-02T16:53:32;23.20;56.50
19544;DHT22;9917;51.256;7.152;2023-07-02T16:55:59;23.00;57.20
19544;DHT22;9917;51.256;7.152;2023-07-02T16:58:25;22.80;58.10
19544;DHT22;9917;51.256;7.152;2023-07-02T17:00:54;22.60;58.50
19544;DHT22;9917;51.256;7.152;2023-07-02T17:03:24;22.50;58.80
19544;DHT22;9917;51.256;7.152;2023-07-02T17:05:49;22.40;59.20
19544;DHT22;9917;51.256;7.152;2023-07-02T17:08:16;22.40;59.20
19544;DHT22;9917;51.256;7.152;2023-07-02T17:10:42;22.40;59.70
19544;DHT22;9917;51.256;7.152;2023-07-02T17:13:08;22.40;60.00
19544;DHT22;9917;51.256;7.152;2023-07-02T17:15:34;22.40;60.10
19544;DHT22;9917;51.256;7.152;2023-07-02T17:17:59;22.40;60.20
19544;DHT22;9917;51.256;7.152;2023-07-02T17:20:25;22.50;59.70
19544;DHT22;9917;51.256;7.152;2023-07-02T17:22:51;22.40;59.90
19544;DHT22;9917;51.256;7.152;2023-07-02T17:25:18;22.30;60.00
19544;DHT22;9917;51.256;7.152;2023-07-02T17:27:43;22.20;60.70